CST,Max TemperatureF,Mean TemperatureF,Min TemperatureF,Max Dew PointF,MeanDew PointF,Min DewpointF,Max Humidity, Mean Humidity, Min Humidity, Max Sea Level PressureIn, Mean Sea Level PressureIn, Min Sea Level PressureIn, Max VisibilityMiles, Mean VisibilityMiles, Min VisibilityMiles, Max Wind SpeedMPH, Mean Wind SpeedMPH, Max Gust SpeedMPH,PrecipitationIn, CloudCover, Events, WindDirDegrees
2013-2-1,37,30,22,31,13,5,76,54,26,30.50,30.41,30.28,10,10,10,14,8,17,0.00,0,,349
2013-2-2,47,36,26,39,32,12,100,86,46,30.36,30.22,30.15,10,5,0,13,4,,0.13,3,Fog-Rain,225
2013-2-3,54,42,28,35,29,22,100,81,31,30.22,30.17,30.14,10,6,0,10,2,17,0.00,0,Fog,311
2013-2-4,48,38,27,33,30,26,96,65,50,30.16,30.09,30.01,10,10,10,10,5,,0.00,1,,175
2013-2-5,61,49,36,49,42,33,100,81,59,30.12,30.05,29.97,10,7,0,9,4,,0.00,4,Fog-Rain,216
2013-2-6,65,48,30,43,35,30,100,81,27,30.25,30.15,30.09,10,5,0,6,1,,0.00,2,Fog,73
2013-2-7,60,54,47,49,46,35,97,79,54,30.14,30.03,29.95,10,10,8,12,6,20,0.00,6,,115
2013-2-8,50,41,32,48,44,29,100,94,63,30.31,30.09,29.95,10,5,1,14,7,22,0.64,7,Rain-Thunderstorm,6
2013-2-9,59,42,26,35,29,24,100,64,27,30.36,30.27,30.20,10,9,3,9,4,,0.00,0,,96
2013-2-10,59,52,46,59,48,33,100,92,56,30.19,30.03,29.95,10,5,1,18,11,29,0.69,7,Rain-Thunderstorm,155
2013-2-11,59,50,41,59,47,34,100,86,52,30.23,30.14,30.04,10,9,1,12,4,17,0.00,3,Rain,247
2013-2-12,48,43,38,40,37,31,100,87,52,30.21,29.98,29.78,10,6,1,12,4,18,0.47,6,Rain-Thunderstorm,59
2013-2-13,43,40,38,43,39,34,100,91,79,30.10,29.89,29.74,10,7,1,16,7,24,0.01,8,,262
2013-2-14,56,42,28,37,31,28,100,88,40,30.15,30.09,30.04,10,4,0,9,0,,0.00,1,Fog,238
2013-2-15,55,44,32,38,32,26,100,69,40,30.19,30.15,30.12,10,10,10,12,4,16,0.00,3,,337
2013-2-16,38,32,24,26,17,11,75,54,32,30.28,30.21,30.15,10,10,10,16,6,28,0.00,2,,335
2013-2-17,47,32,18,19,15,9,88,50,26,30.35,30.28,30.24,10,10,10,12,2,,0.00,3,,192
2013-2-18,59,46,32,45,35,18,97,64,38,30.28,30.11,29.94,10,8,2,22,11,36,0.44,4,Rain,182
2013-2-19,50,40,28,47,35,16,100,77,29,30.30,30.11,29.96,10,8,2,15,7,23,0.06,5,Rain,283
2013-2-20,36,31,26,27,19,13,85,60,39,30.35,30.27,30.20,10,10,6,8,4,,0.01,3,Rain,22
2013-2-21,52,41,30,48,38,18,100,82,29,30.21,29.98,29.88,10,6,1,17,7,28,0.92,6,Rain-Thunderstorm,109
2013-2-22,61,53,45,51,48,43,100,93,52,30.12,30.03,29.93,10,5,0,9,5,,0.06,7,Fog-Rain,144
2013-2-23,54,45,36,49,43,30,100,92,51,30.04,30.00,29.96,10,5,0,10,4,,0.01,6,Fog-Rain,1
2013-2-24,59,44,28,33,30,27,100,64,32,30.13,30.07,29.99,10,10,9,8,4,,0.00,0,,40
2013-2-25,55,48,41,48,39,29,97,72,52,29.98,29.82,29.53,10,10,6,21,9,34,0.01,6,Rain,107
2013-2-26,48,44,38,49,40,30,100,84,66,29.88,29.61,29.46,10,8,1,20,14,29,0.29,8,Rain-Thunderstorm,209
2013-2-27,52,44,36,35,31,28,79,65,48,30.01,29.94,29.87,10,10,10,15,9,22,0.00,5,,258
2013-2-28,36,34,31,30,26,24,89,72,60,30.12,30.06,29.98,10,10,9,14,7,22,0.00,5,,303